sensor_id;sensor_type;location;lat;lon;timestamp;P1;durP1;ratioP1;P2;durP2;ratioP2
64936;SDS011;51452;47.698;19.050;2023-05-23T00:02:11;8.30;;;3.17;;
64936;SDS011;51452;47.698;19.050;2023-05-23T00:04:37;8.10;;;3.92;;
64936;SDS011;51452;47.698;19.050;2023-05-23T00:07:03;4.75;;;3.20;;
64936;SDS011;51452;47.698;19.050;2023-05-23T00:09:29;6.93;;;2.92;;
64936;SDS011;51452;47.698;19.050;2023-05-23T00:11:54;4.63;;;2.67;;
64936;SDS011;51452;47.698;19.050;2023-05-23T00:14:20;5.53;;;3.20;;
64936;SDS011;51452;47.698;19.050;2023-05-23T00:16:45;7.47;;;3.15;;
64936;SDS011;51452;47.698;19.050;2023-05-23T00:19:13;4.20;;;3.10;;
64936;SDS011;51452;47.698;19.050;2023-05-23T00:21:39;6.90;;;3.42;;
64936;SDS011;51452;47.698;19.050;2023-05-23T00:24:06;7.47;;;3.28;;
64936;SDS011;51452;47.698;19.050;2023-05-23T00:26:31;5.63;;;3.22;;
64936;SDS011;51452;47.698;19.050;2023-05-23T00:28:57;6.15;;;3.15;;
64936;SDS011;51452;47.698;19.050;2023-05-23T00:31:23;7.07;;;3.05;;
64936;SDS011;51452;47.698;19.050;2023-05-23T00:33:48;7.30;;;3.63;;
64936;SDS011;51452;47.698;19.050;2023-05-23T00:36:14;5.00;;;3.10;;
64936;SDS011;51452;47.698;19.050;2023-05-23T00:38:39;7.35;;;3.33;;
64936;SDS011;51452;47.698;19.050;2023-05-23T00:41:04;6.78;;;3.42;;
64936;SDS011;51452;47.698;19.050;2023-05-23T00:43:30;7.28;;;3.58;;
64936;SDS011;51452;47.698;19.050;2023-05-23T00:45:56;5.10;;;3.17;;
64936;SDS011;51452;47.698;19.050;2023-05-23T00:48:23;4.65;;;2.92;;
64936;SDS011;51452;47.698;19.050;2023-05-23T00:50:50;5.60;;;3.17;;
64936;SDS011;51452;47.698;19.050;2023-05-23T00:53:15;4.95;;;3.50;;
64936;SDS011;51452;47.698;19.050;2023-05-23T00:55:41;4.28;;;2.83;;
64936;SDS011;51452;47.698;19.050;2023-05-23T00:58:08;3.90;;;2.83;;
64936;SDS011;51452;47.698;19.050;2023-05-23T01:00:35;4.53;;;3.00;;
64936;SDS011;51452;47.698;19.050;2023-05-23T01:03:02;7.35;;;3.28;;
64936;SDS011;51452;47.698;19.050;2023-05-23T01:05:28;6.45;;;3.55;;
64936;SDS011;51452;47.698;19.050;2023-05-23T01:07:54;6.00;;;3.35;;
64936;SDS011;51452;47.698;19.050;2023-05-23T01:10:24;8.68;;;2.95;;
64936;SDS011;51452;47.698;19.050;2023-05-23T01:12:57;7.95;;;3.15;;
64936;SDS011;51452;47.698;19.050;2023-05-23T01:20:55;8.68;;;3.20;;
64936;SDS011;51452;47.698;19.050;2023-05-23T01:26:12;5.47;;;2.67;;
64936;SDS011;51452;47.698;19.050;2023-05-23T01:28:49;8.80;;;3.70;;
64936;SDS011;51452;47.698;19.050;2023-05-23T01:31:19;4.72;;;3.00;;
64936;SDS011;51452;47.698;19.050;2023-05-23T01:33:47;5.40;;;2.88;;
64936;SDS011;51452;47.698;19.050;2023-05-23T01:36:32;4.78;;;2.90;;
64936;SDS011;51452;47.698;19.050;2023-05-23T01:38:59;5.18;;;2.90;;
64936;SDS011;51452;47.698;19.050;2023-05-23T01:41:25;5.97;;;3.15;;
64936;SDS011;51452;47.698;19.050;2023-05-23T01:43:52;7.07;;;3.67;;
64936;SDS011;51452;47.698;19.050;2023-05-23T01:46:18;10.07;;;3.45;;
64936;SDS011;51452;47.698;19.050;2023-05-23T01:48:45;3.90;;;2.80;;
64936;SDS011;51452;47.698;19.050;2023-05-23T01:51:11;6.25;;;3.20;;
64936;SDS011;51452;47.698;19.050;2023-05-23T01:53:38;5.88;;;3.33;;
64936;SDS011;51452;47.698;19.050;2023-05-23T01:56:03;9.57;;;3.70;;
64936;SDS011;51452;47.698;19.050;2023-05-23T01:58:29;4.50;;;3.10;;
64936;SDS011;51452;47.698;19.050;2023-05-23T02:00:55;4.75;;;2.97;;
64936;SDS011;51452;47.698;19.050;2023-05-23T02:03:20;4.10;;;2.88;;
64936;SDS011;51452;47.698;19.050;2023-05-23T02:05:46;10.02;;;3.10;;
64936;SDS011;51452;47.698;19.050;2023-05-23T02:08:11;9.43;;;3.20;;
64936;SDS011;51452;47.698;19.050;2023-05-23T02:10:36;6.50;;;3.33;;
64936;SDS011;51452;47.698;19.050;2023-05-23T02:13:02;7.22;;;3.20;;
64936;SDS011;51452;47.698;19.050;2023-05-23T02:15:27;8.75;;;3.47;;
64936;SDS011;51452;47.698;19.050;2023-05-23T02:17:53;4.20;;;2.90;;
64936;SDS011;51452;47.698;19.050;2023-05-23T02:20:18;8.93;;;3.83;;
64936;SDS011;51452;47.698;19.050;2023-05-23T02:22:44;6.80;;;3.47;;
64936;SDS011;51452;47.698;19.050;2023-05-23T02:25:09;9.07;;;3.30;;
64936;SDS011;51452;47.698;19.050;2023-05-23T02:27:35;6.50;;;3.45;;
64936;SDS011;51452;47.698;19.050;2023-05-23T02:30:00;5.47;;;2.95;;
64936;SDS011;51452;47.698;19.050;2023-05-23T02:32:25;11.93;;;3.53;;
64936;SDS011;51452;47.698;19.050;2023-05-23T02:34:51;4.05;;;3.03;;
64936;SDS011;51452;47.698;19.050;2023-05-23T02:37:16;5.75;;;3.28;;
64936;SDS011;51452;47.698;19.050;2023-05-23T02:39:42;8.52;;;3.40;;
64936;SDS011;51452;47.698;19.050;2023-05-23T02:42:07;5.82;;;2.97;;
64936;SDS011;51452;47.698;19.050;2023-05-23T02:44:33;9.77;;;4.05;;
64936;SDS011;51452;47.698;19.050;2023-05-23T02:46:58;5.63;;;2.90;;
64936;SDS011;51452;47.698;19.050;2023-05-23T02:49:23;4.75;;;3.05;;
64936;SDS011;51452;47.698;19.050;2023-05-23T02:51:49;8.32;;;3.25;;
64936;SDS011;51452;47.698;19.050;2023-05-23T02:54:14;6.40;;;3.22;;
64936;SDS011;51452;47.698;19.050;2023-05-23T02:56:40;5.05;;;3.05;;
64936;SDS011;51452;47.698;19.050;2023-05-23T02:59:06;5.30;;;3.22;;
64936;SDS011;51452;47.698;19.050;2023-05-23T03:01:31;5.32;;;3.15;;
64936;SDS011;51452;47.698;19.050;2023-05-23T03:03:56;7.63;;;3.35;;
64936;SDS011;51452;47.698;19.050;2023-05-23T03:06:22;6.38;;;3.28;;
64936;SDS011;51452;47.698;19.050;2023-05-23T03:08:47;4.57;;;3.00;;
64936;SDS011;51452;47.698;19.050;2023-05-23T03:11:13;5.70;;;3.40;;
64936;SDS011;51452;47.698;19.050;2023-05-23T03:13:38;5.15;;;2.95;;
64936;SDS011;51452;47.698;19.050;2023-05-23T03:16:04;7.35;;;3.13;;
64936;SDS011;51452;47.698;19.050;2023-05-23T03:18:29;8.32;;;3.13;;
64936;SDS011;51452;47.698;19.050;2023-05-23T03:20:54;7.65;;;3.22;;
64936;SDS011;51452;47.698;19.050;2023-05-23T03:23:20;7.22;;;3.10;;
64936;SDS011;51452;47.698;19.050;2023-05-23T03:25:45;5.65;;;3.40;;
64936;SDS011;51452;47.698;19.050;2023-05-23T03:28:10;4.68;;;3.17;;
64936;SDS011;51452;47.698;19.050;2023-05-23T03:30:36;6.47;;;4.00;;
64936;SDS011;51452;47.698;19.050;2023-05-23T03:33:02;8.23;;;3.20;;
64936;SDS011;51452;47.698;19.050;2023-05-23T03:35:28;7.45;;;3.55;;
64936;SDS011;51452;47.698;19.050;2023-05-23T03:37:53;10.55;;;3.35;;
64936;SDS011;51452;47.698;19.050;2023-05-23T03:40:18;9.70;;;3.85;;
64936;SDS011;51452;47.698;19.050;2023-05-23T03:42:46;5.78;;;3.35;;
64936;SDS011;51452;47.698;19.050;2023-05-23T03:45:12;7.57;;;3.58;;
64936;SDS011;51452;47.698;19.050;2023-05-23T03:47:37;6.65;;;3.58;;
64936;SDS011;51452;47.698;19.050;2023-05-23T03:50:03;8.93;;;3.38;;
64936;SDS011;51452;47.698;19.050;2023-05-23T03:52:28;6.63;;;3.78;;
64936;SDS011;51452;47.698;19.050;2023-05-23T03:54:54;6.50;;;3.00;;
64936;SDS011;51452;47.698;19.050;2023-05-23T03:57:19;7.60;;;3.65;;
64936;SDS011;51452;47.698;19.050;2023-05-23T03:59:45;6.03;;;3.35;;
64936;SDS011;51452;47.698;19.050;2023-05-23T04:02:10;10.90;;;3.17;;
64936;SDS011;51452;47.698;19.050;2023-05-23T04:04:35;8.32;;;3.22;;
64936;SDS011;51452;47.698;19.050;2023-05-23T04:07:01;4.97;;;3.25;;
64936;SDS011;51452;47.698;19.050;2023-05-23T04:09:26;4.40;;;3.03;;
64936;SDS011;51452;47.698;19.050;2023-05-23T04:11:51;9.15;;;3.25;;
64936;SDS011;51452;47.698;19.050;2023-05-23T04:14:17;9.93;;;3.65;;
64936;SDS011;51452;47.698;19.050;2023-05-23T04:16:46;9.40;;;3.50;;
64936;SDS011;51452;47.698;19.050;2023-05-23T04:19:12;15.35;;;4.13;;
64936;SDS011;51452;47.698;19.050;2023-05-23T04:21:37;8.88;;;3.70;;
64936;SDS011;51452;47.698;19.050;2023-05-23T04:24:03;4.93;;;3.35;;
64936;SDS011;51452;47.698;19.050;2023-05-23T04:26:28;8.00;;;3.50;;
64936;SDS011;51452;47.698;19.050;2023-05-23T04:28:53;17.27;;;3.85;;
64936;SDS011;51452;47.698;19.050;2023-05-23T04:31:19;8.35;;;3.75;;
64936;SDS011;51452;47.698;19.050;2023-05-23T04:33:48;9.18;;;4.45;;
64936;SDS011;51452;47.698;19.050;2023-05-23T04:36:14;6.22;;;3.50;;
64936;SDS011;51452;47.698;19.050;2023-05-23T04:38:39;5.45;;;3.60;;
64936;SDS011;51452;47.698;19.050;2023-05-23T04:41:05;8.00;;;3.50;;
64936;SDS011;51452;47.698;19.050;2023-05-23T04:43:31;5.55;;;3.72;;
64936;SDS011;51452;47.698;19.050;2023-05-23T04:46:01;8.80;;;3.42;;
64936;SDS011;51452;47.698;19.050;2023-05-23T04:48:27;7.53;;;3.47;;
64936;SDS011;51452;47.698;19.050;2023-05-23T04:50:53;5.22;;;3.30;;
64936;SDS011;51452;47.698;19.050;2023-05-23T04:53:20;4.30;;;3.20;;
64936;SDS011;51452;47.698;19.050;2023-05-23T04:55:46;5.00;;;3.30;;
64936;SDS011;51452;47.698;19.050;2023-05-23T04:58:12;4.25;;;3.10;;
64936;SDS011;51452;47.698;19.050;2023-05-23T05:00:37;7.60;;;3.03;;
64936;SDS011;51452;47.698;19.050;2023-05-23T05:03:02;4.72;;;3.25;;
64936;SDS011;51452;47.698;19.050;2023-05-23T05:05:28;9.18;;;3.38;;
64936;SDS011;51452;47.698;19.050;2023-05-23T05:07:53;4.30;;;3.10;;
64936;SDS011;51452;47.698;19.050;2023-05-23T05:10:19;6.80;;;3.40;;
64936;SDS011;51452;47.698;19.050;2023-05-23T05:12:45;7.78;;;3.50;;
64936;SDS011;51452;47.698;19.050;2023-05-23T05:15:13;7.18;;;3.53;;
64936;SDS011;51452;47.698;19.050;2023-05-23T05:17:41;6.78;;;3.78;;
64936;SDS011;51452;47.698;19.050;2023-05-23T05:20:07;6.60;;;3.33;;
64936;SDS011;51452;47.698;19.050;2023-05-23T05:22:33;5.40;;;3.30;;
64936;SDS011;51452;47.698;19.050;2023-05-23T05:25:00;6.57;;;3.63;;
64936;SDS011;51452;47.698;19.050;2023-05-23T05:27:27;5.10;;;3.03;;
64936;SDS011;51452;47.698;19.050;2023-05-23T05:29:52;5.63;;;3.20;;
64936;SDS011;51452;47.698;19.050;2023-05-23T05:32:21;4.05;;;3.20;;
64936;SDS011;51452;47.698;19.050;2023-05-23T05:34:46;7.22;;;3.13;;
64936;SDS011;51452;47.698;19.050;2023-05-23T05:37:12;9.15;;;3.03;;
64936;SDS011;51452;47.698;19.050;2023-05-23T05:39:38;5.97;;;3.58;;
64936;SDS011;51452;47.698;19.050;2023-05-23T05:42:03;8.63;;;3.58;;
64936;SDS011;51452;47.698;19.050;2023-05-23T05:44:29;11.32;;;4.00;;
64936;SDS011;51452;47.698;19.050;2023-05-23T05:46:54;9.73;;;3.40;;
64936;SDS011;51452;47.698;19.050;2023-05-23T05:49:20;8.43;;;4.28;;
64936;SDS011;51452;47.698;19.050;2023-05-23T05:51:45;7.28;;;3.60;;
64936;SDS011;51452;47.698;19.050;2023-05-23T05:54:10;8.40;;;3.92;;
64936;SDS011;51452;47.698;19.050;2023-05-23T05:56:36;9.20;;;4.07;;
64936;SDS011;51452;47.698;19.050;2023-05-23T05:59:01;5.32;;;3.15;;
64936;SDS011;51452;47.698;19.050;2023-05-23T06:01:26;5.65;;;3.50;;
64936;SDS011;51452;47.698;19.050;2023-05-23T06:03:52;8.18;;;4.18;;
64936;SDS011;51452;47.698;19.050;2023-05-23T06:06:17;11.50;;;3.67;;
64936;SDS011;51452;47.698;19.050;2023-05-23T06:08:43;6.97;;;3.88;;
64936;SDS011;51452;47.698;19.050;2023-05-23T06:11:09;6.72;;;3.90;;
64936;SDS011;51452;47.698;19.050;2023-05-23T06:13:36;7.63;;;3.20;;
64936;SDS011;51452;47.698;19.050;2023-05-23T06:16:01;11.05;;;4.07;;
64936;SDS011;51452;47.698;19.050;2023-05-23T06:18:26;12.65;;;3.60;;
64936;SDS011;51452;47.698;19.050;2023-05-23T06:20:52;6.53;;;3.33;;
64936;SDS011;51452;47.698;19.050;2023-05-23T06:23:17;6.90;;;3.13;;
64936;SDS011;51452;47.698;19.050;2023-05-23T06:25:42;8.23;;;3.60;;
64936;SDS011;51452;47.698;19.050;2023-05-23T06:28:08;9.75;;;3.97;;
64936;SDS011;51452;47.698;19.050;2023-05-23T06:30:33;8.27;;;3.53;;
64936;SDS011;51452;47.698;19.050;2023-05-23T06:33:00;6.90;;;3.60;;
64936;SDS011;51452;47.698;19.050;2023-05-23T06:35:25;9.32;;;3.35;;
64936;SDS011;51452;47.698;19.050;2023-05-23T06:37:51;6.53;;;3.67;;
64936;SDS011;51452;47.698;19.050;2023-05-23T06:40:16;9.82;;;3.95;;
64936;SDS011;51452;47.698;19.050;2023-05-23T06:42:41;4.85;;;3.15;;
64936;SDS011;51452;47.698;19.050;2023-05-23T06:45:07;6.45;;;3.60;;
64936;SDS011;51452;47.698;19.050;2023-05-23T06:47:33;10.50;;;3.50;;
64936;SDS011;51452;47.698;19.050;2023-05-23T06:49:58;7.25;;;3.28;;
64936;SDS011;51452;47.698;19.050;2023-05-23T06:52:24;7.25;;;3.80;;
64936;SDS011;51452;47.698;19.050;2023-05-23T06:54:49;4.90;;;3.25;;
64936;SDS011;51452;47.698;19.050;2023-05-23T06:57:15;5.20;;;3.17;;
64936;SDS011;51452;47.698;19.050;2023-05-23T06:59:40;8.88;;;3.40;;
64936;SDS011;51452;47.698;19.050;2023-05-23T07:02:06;8.40;;;3.72;;
64936;SDS011;51452;47.698;19.050;2023-05-23T07:04:31;9.45;;;3.47;;
64936;SDS011;51452;47.698;19.050;2023-05-23T07:06:56;6.75;;;3.15;;
64936;SDS011;51452;47.698;19.050;2023-05-23T07:09:22;6.78;;;2.90;;
64936;SDS011;51452;47.698;19.050;2023-05-23T07:11:47;8.43;;;3.70;;
64936;SDS011;51452;47.698;19.050;2023-05-23T07:14:13;7.60;;;3.50;;
64936;SDS011;51452;47.698;19.050;2023-05-23T07:16:39;5.95;;;3.25;;
64936;SDS011;51452;47.698;19.050;2023-05-23T07:19:04;5.88;;;3.60;;
64936;SDS011;51452;47.698;19.050;2023-05-23T07:21:30;5.70;;;3.13;;
64936;SDS011;51452;47.698;19.050;2023-05-23T07:23:56;7.40;;;3.50;;
64936;SDS011;51452;47.698;19.050;2023-05-23T07:26:21;5.22;;;3.55;;
64936;SDS011;51452;47.698;19.050;2023-05-23T07:28:46;5.32;;;3.38;;
64936;SDS011;51452;47.698;19.050;2023-05-23T07:31:12;6.45;;;3.72;;
64936;SDS011;51452;47.698;19.050;2023-05-23T07:33:38;6.65;;;3.10;;
64936;SDS011;51452;47.698;19.050;2023-05-23T07:36:03;6.70;;;3.60;;
64936;SDS011;51452;47.698;19.050;2023-05-23T07:38:29;6.07;;;3.47;;
64936;SDS011;51452;47.698;19.050;2023-05-23T07:40:54;5.80;;;3.28;;
64936;SDS011;51452;47.698;19.050;2023-05-23T07:43:19;7.63;;;3.47;;
64936;SDS011;51452;47.698;19.050;2023-05-23T07:45:45;5.40;;;3.40;;
64936;SDS011;51452;47.698;19.050;2023-05-23T07:48:10;5.50;;;3.25;;
64936;SDS011;51452;47.698;19.050;2023-05-23T07:50:36;5.50;;;3.80;;
64936;SDS011;51452;47.698;19.050;2023-05-23T07:53:04;6.28;;;3.53;;
64936;SDS011;51452;47.698;19.050;2023-05-23T07:55:30;6.75;;;3.72;;
64936;SDS011;51452;47.698;19.050;2023-05-23T07:57:55;4.80;;;3.40;;
64936;SDS011;51452;47.698;19.050;2023-05-23T08:00:21;8.35;;;3.67;;
64936;SDS011;51452;47.698;19.050;2023-05-23T08:02:46;6.07;;;3.50;;
64936;SDS011;51452;47.698;19.050;2023-05-23T08:05:12;7.43;;;3.65;;
64936;SDS011;51452;47.698;19.050;2023-05-23T08:07:37;10.15;;;3.88;;
64936;SDS011;51452;47.698;19.050;2023-05-23T08:10:03;6.50;;;3.22;;
64936;SDS011;51452;47.698;19.050;2023-05-23T08:12:28;7.65;;;3.83;;
64936;SDS011;51452;47.698;19.050;2023-05-23T08:14:54;5.90;;;3.58;;
64936;SDS011;51452;47.698;19.050;2023-05-23T08:17:19;6.50;;;3.42;;
64936;SDS011;51452;47.698;19.050;2023-05-23T08:19:44;9.10;;;3.65;;
64936;SDS011;51452;47.698;19.050;2023-05-23T08:22:10;6.53;;;3.70;;
64936;SDS011;51452;47.698;19.050;2023-05-23T08:24:36;6.03;;;3.83;;
64936;SDS011;51452;47.698;19.050;2023-05-23T08:27:01;6.75;;;4.22;;
64936;SDS011;51452;47.698;19.050;2023-05-23T08:29:27;7.50;;;4.10;;
64936;SDS011;51452;47.698;19.050;2023-05-23T08:31:52;5.57;;;3.80;;
64936;SDS011;51452;47.698;19.050;2023-05-23T08:34:17;7.78;;;4.00;;
64936;SDS011;51452;47.698;19.050;2023-05-23T08:36:43;7.00;;;3.97;;
64936;SDS011;51452;47.698;19.050;2023-05-23T08:39:08;10.93;;;4.28;;
64936;SDS011;51452;47.698;19.050;2023-05-23T08:41:34;9.23;;;4.10;;
64936;SDS011;51452;47.698;19.050;2023-05-23T08:43:59;8.18;;;3.97;;
64936;SDS011;51452;47.698;19.050;2023-05-23T08:46:25;4.43;;;3.58;;
64936;SDS011;51452;47.698;19.050;2023-05-23T08:48:54;5.32;;;3.85;;
64936;SDS011;51452;47.698;19.050;2023-05-23T08:51:20;9.38;;;4.13;;
64936;SDS011;51452;47.698;19.050;2023-05-23T08:53:47;10.30;;;3.80;;
64936;SDS011;51452;47.698;19.050;2023-05-23T08:56:14;4.55;;;3.38;;
64936;SDS011;51452;47.698;19.050;2023-05-23T08:58:40;5.47;;;3.53;;
64936;SDS011;51452;47.698;19.050;2023-05-23T09:01:07;6.47;;;3.80;;
64936;SDS011;51452;47.698;19.050;2023-05-23T09:03:34;12.48;;;4.32;;
64936;SDS011;51452;47.698;19.050;2023-05-23T09:06:05;5.65;;;3.75;;
64936;SDS011;51452;47.698;19.050;2023-05-23T09:08:31;6.47;;;3.90;;
64936;SDS011;51452;47.698;19.050;2023-05-23T09:10:57;8.15;;;3.80;;
64936;SDS011;51452;47.698;19.050;2023-05-23T09:13:22;8.20;;;3.30;;
64936;SDS011;51452;47.698;19.050;2023-05-23T09:16:01;7.35;;;4.10;;
64936;SDS011;51452;47.698;19.050;2023-05-23T09:18:37;6.20;;;3.28;;
64936;SDS011;51452;47.698;19.050;2023-05-23T09:21:07;3.92;;;3.30;;
64936;SDS011;51452;47.698;19.050;2023-05-23T09:23:35;6.60;;;3.78;;
64936;SDS011;51452;47.698;19.050;2023-05-23T09:26:07;5.50;;;4.20;;
64936;SDS011;51452;47.698;19.050;2023-05-23T09:28:35;9.07;;;3.55;;
64936;SDS011;51452;47.698;19.050;2023-05-23T09:31:02;9.43;;;4.07;;
64936;SDS011;51452;47.698;19.050;2023-05-23T09:33:38;11.35;;;4.38;;
64936;SDS011;51452;47.698;19.050;2023-05-23T09:36:07;5.45;;;4.00;;
64936;SDS011;51452;47.698;19.050;2023-05-23T09:38:36;6.43;;;4.35;;
64936;SDS011;51452;47.698;19.050;2023-05-23T09:41:06;5.40;;;3.92;;
64936;SDS011;51452;47.698;19.050;2023-05-23T09:43:32;5.70;;;4.07;;
64936;SDS011;51452;47.698;19.050;2023-05-23T09:46:10;6.43;;;4.03;;
64936;SDS011;51452;47.698;19.050;2023-05-23T09:48:36;9.13;;;3.88;;
64936;SDS011;51452;47.698;19.050;2023-05-23T09:51:03;6.80;;;4.03;;
64936;SDS011;51452;47.698;19.050;2023-05-23T09:53:29;7.03;;;4.03;;
64936;SDS011;51452;47.698;19.050;2023-05-23T09:55:54;8.98;;;4.25;;
64936;SDS011;51452;47.698;19.050;2023-05-23T09:58:22;6.68;;;4.22;;
64936;SDS011;51452;47.698;19.050;2023-05-23T10:00:49;6.90;;;3.95;;
64936;SDS011;51452;47.698;19.050;2023-05-23T10:03:17;7.55;;;4.63;;
64936;SDS011;51452;47.698;19.050;2023-05-23T10:05:49;10.02;;;4.38;;
64936;SDS011;51452;47.698;19.050;2023-05-23T10:08:24;8.52;;;4.55;;
64936;SDS011;51452;47.698;19.050;2023-05-23T10:13:23;8.88;;;4.85;;
64936;SDS011;51452;47.698;19.050;2023-05-23T10:15:50;13.95;;;4.30;;
64936;SDS011;51452;47.698;19.050;2023-05-23T10:18:24;5.75;;;4.25;;
64936;SDS011;51452;47.698;19.050;2023-05-23T10:20:53;9.25;;;5.10;;
64936;SDS011;51452;47.698;19.050;2023-05-23T10:23:26;10.07;;;5.40;;
64936;SDS011;51452;47.698;19.050;2023-05-23T10:25:53;9.23;;;5.75;;
64936;SDS011;51452;47.698;19.050;2023-05-23T10:28:19;10.55;;;6.38;;
64936;SDS011;51452;47.698;19.050;2023-05-23T10:30:45;8.57;;;5.95;;
64936;SDS011;51452;47.698;19.050;2023-05-23T10:33:11;13.13;;;5.78;;
64936;SDS011;51452;47.698;19.050;2023-05-23T10:38:29;9.35;;;5.40;;
64936;SDS011;51452;47.698;19.050;2023-05-23T10:41:05;8.23;;;4.75;;
64936;SDS011;51452;47.698;19.050;2023-05-23T10:46:21;6.88;;;4.28;;
64936;SDS011;51452;47.698;19.050;2023-05-23T10:48:47;5.93;;;4.55;;
64936;SDS011;51452;47.698;19.050;2023-05-23T10:51:17;6.50;;;4.30;;
64936;SDS011;51452;47.698;19.050;2023-05-23T10:53:44;8.32;;;4.50;;
64936;SDS011;51452;47.698;19.050;2023-05-23T10:56:18;9.88;;;4.65;;
64936;SDS011;51452;47.698;19.050;2023-05-23T10:58:49;5.25;;;4.18;;
64936;SDS011;51452;47.698;19.050;2023-05-23T11:01:16;8.18;;;4.45;;
64936;SDS011;51452;47.698;19.050;2023-05-23T11:09:03;13.80;;;6.20;;
64936;SDS011;51452;47.698;19.050;2023-05-23T11:14:12;14.70;;;6.60;;
64936;SDS011;51452;47.698;19.050;2023-05-23T11:16:42;11.57;;;6.80;;
64936;SDS011;51452;47.698;19.050;2023-05-23T11:21:48;12.20;;;6.60;;
64936;SDS011;51452;47.698;19.050;2023-05-23T11:24:16;12.45;;;6.18;;
64936;SDS011;51452;47.698;19.050;2023-05-23T11:26:51;8.48;;;6.60;;
64936;SDS011;51452;47.698;19.050;2023-05-23T11:29:19;9.70;;;6.13;;
64936;SDS011;51452;47.698;19.050;2023-05-23T11:31:44;12.63;;;6.50;;
64936;SDS011;51452;47.698;19.050;2023-05-23T11:34:10;12.00;;;6.20;;
64936;SDS011;51452;47.698;19.050;2023-05-23T11:36:36;8.70;;;5.70;;
64936;SDS011;51452;47.698;19.050;2023-05-23T11:39:02;10.27;;;6.38;;
64936;SDS011;51452;47.698;19.050;2023-05-23T11:41:28;12.05;;;6.80;;
64936;SDS011;51452;47.698;19.050;2023-05-23T11:43:54;7.90;;;5.65;;
64936;SDS011;51452;47.698;19.050;2023-05-23T11:46:20;9.02;;;6.40;;
64936;SDS011;51452;47.698;19.050;2023-05-23T11:48:46;11.60;;;6.15;;
64936;SDS011;51452;47.698;19.050;2023-05-23T11:51:12;9.60;;;6.10;;
64936;SDS011;51452;47.698;19.050;2023-05-23T11:53:38;7.85;;;5.95;;
64936;SDS011;51452;47.698;19.050;2023-05-23T11:56:03;8.05;;;5.75;;
64936;SDS011;51452;47.698;19.050;2023-05-23T11:58:33;7.05;;;5.15;;
64936;SDS011;51452;47.698;19.050;2023-05-23T12:01:06;10.70;;;5.43;;
64936;SDS011;51452;47.698;19.050;2023-05-23T12:03:45;9.32;;;5.45;;
64936;SDS011;51452;47.698;19.050;2023-05-23T12:06:15;10.27;;;5.22;;
64936;SDS011;51452;47.698;19.050;2023-05-23T12:08:43;13.05;;;5.55;;
64936;SDS011;51452;47.698;19.050;2023-05-23T12:11:08;9.10;;;4.97;;
64936;SDS011;51452;47.698;19.050;2023-05-23T12:13:34;6.78;;;4.78;;
64936;SDS011;51452;47.698;19.050;2023-05-23T12:16:00;8.88;;;4.97;;
64936;SDS011;51452;47.698;19.050;2023-05-23T12:18:27;8.55;;;4.75;;
64936;SDS011;51452;47.698;19.050;2023-05-23T12:20:58;12.13;;;5.28;;
64936;SDS011;51452;47.698;19.050;2023-05-23T12:23:25;5.57;;;4.55;;
64936;SDS011;51452;47.698;19.050;2023-05-23T12:25:52;5.55;;;4.32;;
64936;SDS011;51452;47.698;19.050;2023-05-23T12:28:19;5.43;;;4.53;;
64936;SDS011;51452;47.698;19.050;2023-05-23T12:30:45;8.60;;;4.45;;
64936;SDS011;51452;47.698;19.050;2023-05-23T12:33:11;7.65;;;5.15;;
64936;SDS011;51452;47.698;19.050;2023-05-23T12:35:37;6.00;;;4.68;;
64936;SDS011;51452;47.698;19.050;2023-05-23T12:38:07;7.78;;;4.50;;
64936;SDS011;51452;47.698;19.050;2023-05-23T12:40:32;10.45;;;4.55;;
64936;SDS011;51452;47.698;19.050;2023-05-23T12:42:58;7.72;;;4.63;;
64936;SDS011;51452;47.698;19.050;2023-05-23T12:45:24;7.22;;;4.55;;
64936;SDS011;51452;47.698;19.050;2023-05-23T12:47:55;10.30;;;4.50;;
64936;SDS011;51452;47.698;19.050;2023-05-23T12:50:21;6.72;;;4.43;;
64936;SDS011;51452;47.698;19.050;2023-05-23T12:52:46;8.57;;;4.80;;
64936;SDS011;51452;47.698;19.050;2023-05-23T12:55:12;8.98;;;4.88;;
64936;SDS011;51452;47.698;19.050;2023-05-23T12:57:37;11.02;;;4.53;;
64936;SDS011;51452;47.698;19.050;2023-05-23T13:00:03;5.10;;;4.00;;
64936;SDS011;51452;47.698;19.050;2023-05-23T13:02:30;7.95;;;4.60;;
64936;SDS011;51452;47.698;19.050;2023-05-23T13:04:56;7.28;;;4.30;;
64936;SDS011;51452;47.698;19.050;2023-05-23T13:07:21;11.90;;;4.82;;
64936;SDS011;51452;47.698;19.050;2023-05-23T13:09:47;5.90;;;3.78;;
64936;SDS011;51452;47.698;19.050;2023-05-23T13:12:12;8.90;;;4.07;;
64936;SDS011;51452;47.698;19.050;2023-05-23T13:14:39;5.55;;;3.50;;
64936;SDS011;51452;47.698;19.050;2023-05-23T13:17:05;7.68;;;3.40;;
64936;SDS011;51452;47.698;19.050;2023-05-23T13:19:30;8.23;;;3.40;;
64936;SDS011;51452;47.698;19.050;2023-05-23T13:21:56;5.15;;;3.45;;
64936;SDS011;51452;47.698;19.050;2023-05-23T13:24:21;4.95;;;3.70;;
64936;SDS011;51452;47.698;19.050;2023-05-23T13:26:47;5.45;;;3.47;;
64936;SDS011;51452;47.698;19.050;2023-05-23T13:29:12;6.68;;;3.70;;
64936;SDS011;51452;47.698;19.050;2023-05-23T13:31:38;6.55;;;3.58;;
64936;SDS011;51452;47.698;19.050;2023-05-23T13:34:03;10.00;;;4.05;;
64936;SDS011;51452;47.698;19.050;2023-05-23T13:36:28;5.45;;;3.78;;
64936;SDS011;51452;47.698;19.050;2023-05-23T13:38:54;8.60;;;4.07;;
64936;SDS011;51452;47.698;19.050;2023-05-23T13:41:20;5.55;;;3.40;;
64936;SDS011;51452;47.698;19.050;2023-05-23T13:43:45;6.07;;;3.53;;
64936;SDS011;51452;47.698;19.050;2023-05-23T13:46:11;6.35;;;3.70;;
64936;SDS011;51452;47.698;19.050;2023-05-23T13:48:37;6.25;;;3.80;;
64936;SDS011;51452;47.698;19.050;2023-05-23T13:51:03;6.63;;;3.90;;
64936;SDS011;51452;47.698;19.050;2023-05-23T13:53:28;9.27;;;4.03;;
64936;SDS011;51452;47.698;19.050;2023-05-23T13:55:53;6.70;;;3.50;;
64936;SDS011;51452;47.698;19.050;2023-05-23T13:58:19;8.32;;;3.65;;
64936;SDS011;51452;47.698;19.050;2023-05-23T14:00:45;6.50;;;3.72;;
64936;SDS011;51452;47.698;19.050;2023-05-23T14:03:11;7.63;;;3.78;;
64936;SDS011;51452;47.698;19.050;2023-05-23T14:05:36;12.73;;;3.42;;
64936;SDS011;51452;47.698;19.050;2023-05-23T14:08:02;7.03;;;3.45;;
64936;SDS011;51452;47.698;19.050;2023-05-23T14:10:28;6.38;;;3.53;;
64936;SDS011;51452;47.698;19.050;2023-05-23T14:12:54;6.75;;;3.17;;
64936;SDS011;51452;47.698;19.050;2023-05-23T14:15:19;6.68;;;3.40;;
64936;SDS011;51452;47.698;19.050;2023-05-23T14:17:45;6.90;;;3.00;;
64936;SDS011;51452;47.698;19.050;2023-05-23T14:20:11;4.38;;;2.88;;
64936;SDS011;51452;47.698;19.050;2023-05-23T14:22:36;5.90;;;3.08;;
64936;SDS011;51452;47.698;19.050;2023-05-23T14:25:02;5.63;;;2.97;;
64936;SDS011;51452;47.698;19.050;2023-05-23T14:27:27;8.27;;;3.03;;
64936;SDS011;51452;47.698;19.050;2023-05-23T14:29:53;5.63;;;2.78;;
64936;SDS011;51452;47.698;19.050;2023-05-23T14:32:18;3.72;;;2.60;;
64936;SDS011;51452;47.698;19.050;2023-05-23T14:34:43;5.47;;;2.63;;
64936;SDS011;51452;47.698;19.050;2023-05-23T14:37:09;4.88;;;2.60;;
64936;SDS011;51452;47.698;19.050;2023-05-23T14:39:34;5.97;;;2.70;;
64936;SDS011;51452;47.698;19.050;2023-05-23T14:42:00;6.70;;;2.58;;
64936;SDS011;51452;47.698;19.050;2023-05-23T14:44:26;4.95;;;2.67;;
64936;SDS011;51452;47.698;19.050;2023-05-23T14:46:52;3.92;;;2.42;;
64936;SDS011;51452;47.698;19.050;2023-05-23T14:49:17;3.72;;;2.53;;
64936;SDS011;51452;47.698;19.050;2023-05-23T14:51:42;3.63;;;2.40;;
64936;SDS011;51452;47.698;19.050;2023-05-23T14:54:08;6.35;;;3.00;;
64936;SDS011;51452;47.698;19.050;2023-05-23T14:56:34;4.20;;;2.22;;